sensor_id;sensor_type;location;lat;lon;timestamp;P1;durP1;ratioP1;P2;durP2;ratioP2
26963;SDS011;14521;48.148;-1.656;2023-03-19T00:00:07;1.33;;;0.60;;
26963;SDS011;14521;48.148;-1.656;2023-03-19T00:03:31;1.13;;;0.60;;
26963;SDS011;14521;48.148;-1.656;2023-03-19T00:06:54;1.42;;;0.40;;
26963;SDS011;14521;48.148;-1.656;2023-03-19T00:10:17;1.45;;;0.52;;
26963;SDS011;14521;48.148;-1.656;2023-03-19T00:13:39;1.73;;;0.40;;
26963;SDS011;14521;48.148;-1.656;2023-03-19T00:17:02;1.92;;;0.68;;
26963;SDS011;14521;48.148;-1.656;2023-03-19T00:20:24;2.25;;;0.60;;
26963;SDS011;14521;48.148;-1.656;2023-03-19T00:23:46;2.45;;;0.40;;
26963;SDS011;14521;48.148;-1.656;2023-03-19T00:27:09;0.70;;;0.40;;
26963;SDS011;14521;48.148;-1.656;2023-03-19T00:30:32;2.80;;;0.60;;
26963;SDS011;14521;48.148;-1.656;2023-03-19T00:33:58;1.63;;;0.73;;
26963;SDS011;14521;48.148;-1.656;2023-03-19T00:37:20;0.63;;;0.60;;
26963;SDS011;14521;48.148;-1.656;2023-03-19T00:40:43;0.55;;;0.50;;
26963;SDS011;14521;48.148;-1.656;2023-03-19T00:44:06;1.58;;;0.60;;
26963;SDS011;14521;48.148;-1.656;2023-03-19T00:47:29;0.80;;;0.70;;
26963;SDS011;14521;48.148;-1.656;2023-03-19T00:50:51;1.05;;;0.50;;
26963;SDS011;14521;48.148;-1.656;2023-03-19T00:54:13;0.93;;;0.40;;
26963;SDS011;14521;48.148;-1.656;2023-03-19T00:57:36;0.98;;;0.60;;
26963;SDS011;14521;48.148;-1.656;2023-03-19T01:00:58;1.35;;;0.47;;
26963;SDS011;14521;48.148;-1.656;2023-03-19T01:04:21;2.25;;;0.55;;
26963;SDS011;14521;48.148;-1.656;2023-03-19T01:07:44;0.73;;;0.50;;
26963;SDS011;14521;48.148;-1.656;2023-03-19T01:11:13;0.40;;;0.40;;
26963;SDS011;14521;48.148;-1.656;2023-03-19T01:14:36;1.02;;;0.50;;
26963;SDS011;14521;48.148;-1.656;2023-03-19T01:17:58;6.47;;;0.70;;
26963;SDS011;14521;48.148;-1.656;2023-03-19T01:21:21;0.63;;;0.38;;
26963;SDS011;14521;48.148;-1.656;2023-03-19T01:24:44;1.35;;;0.82;;
26963;SDS011;14521;48.148;-1.656;2023-03-19T01:28:07;2.53;;;0.85;;
26963;SDS011;14521;48.148;-1.656;2023-03-19T01:31:32;1.48;;;0.35;;
26963;SDS011;14521;48.148;-1.656;2023-03-19T01:35:06;0.65;;;0.52;;
26963;SDS011;14521;48.148;-1.656;2023-03-19T01:38:29;2.03;;;0.68;;
26963;SDS011;14521;48.148;-1.656;2023-03-19T01:41:59;2.67;;;0.60;;
26963;SDS011;14521;48.148;-1.656;2023-03-19T01:45:42;0.47;;;0.45;;
26963;SDS011;14521;48.148;-1.656;2023-03-19T01:49:24;1.88;;;0.85;;
26963;SDS011;14521;48.148;-1.656;2023-03-19T01:53:04;0.77;;;0.40;;
26963;SDS011;14521;48.148;-1.656;2023-03-19T02:00:27;2.28;;;0.50;;
26963;SDS011;14521;48.148;-1.656;2023-03-19T02:03:49;0.50;;;0.28;;
26963;SDS011;14521;48.148;-1.656;2023-03-19T02:07:31;0.80;;;0.40;;
26963;SDS011;14521;48.148;-1.656;2023-03-19T02:10:55;1.55;;;0.75;;
26963;SDS011;14521;48.148;-1.656;2023-03-19T02:14:21;0.50;;;0.25;;
26963;SDS011;14521;48.148;-1.656;2023-03-19T02:17:44;1.75;;;0.60;;
26963;SDS011;14521;48.148;-1.656;2023-03-19T02:21:07;0.57;;;0.47;;
26963;SDS011;14521;48.148;-1.656;2023-03-19T02:24:34;0.88;;;0.50;;
26963;SDS011;14521;48.148;-1.656;2023-03-19T02:28:04;0.50;;;0.40;;
26963;SDS011;14521;48.148;-1.656;2023-03-19T02:31:28;1.25;;;0.50;;
26963;SDS011;14521;48.148;-1.656;2023-03-19T02:34:51;2.15;;;0.82;;
26963;SDS011;14521;48.148;-1.656;2023-03-19T02:38:13;0.63;;;0.40;;
26963;SDS011;14521;48.148;-1.656;2023-03-19T02:41:36;1.15;;;0.70;;
26963;SDS011;14521;48.148;-1.656;2023-03-19T02:45:00;0.45;;;0.43;;
26963;SDS011;14521;48.148;-1.656;2023-03-19T02:48:22;1.67;;;0.50;;
26963;SDS011;14521;48.148;-1.656;2023-03-19T02:51:45;0.90;;;0.50;;
26963;SDS011;14521;48.148;-1.656;2023-03-19T02:55:07;0.55;;;0.30;;
26963;SDS011;14521;48.148;-1.656;2023-03-19T02:58:30;0.63;;;0.38;;
26963;SDS011;14521;48.148;-1.656;2023-03-19T03:01:53;3.05;;;0.60;;
26963;SDS011;14521;48.148;-1.656;2023-03-19T03:05:15;1.15;;;0.40;;
26963;SDS011;14521;48.148;-1.656;2023-03-19T03:08:38;1.05;;;0.50;;
26963;SDS011;14521;48.148;-1.656;2023-03-19T03:12:01;1.40;;;1.10;;
26963;SDS011;14521;48.148;-1.656;2023-03-19T03:15:24;1.80;;;0.63;;
26963;SDS011;14521;48.148;-1.656;2023-03-19T03:18:46;0.88;;;0.63;;
26963;SDS011;14521;48.148;-1.656;2023-03-19T03:22:09;1.05;;;0.47;;
26963;SDS011;14521;48.148;-1.656;2023-03-19T03:25:32;1.05;;;0.32;;
26963;SDS011;14521;48.148;-1.656;2023-03-19T03:28:55;2.25;;;0.40;;
26963;SDS011;14521;48.148;-1.656;2023-03-19T03:32:18;1.27;;;0.70;;
26963;SDS011;14521;48.148;-1.656;2023-03-19T03:35:40;1.27;;;0.40;;
26963;SDS011;14521;48.148;-1.656;2023-03-19T03:39:02;2.05;;;0.55;;
26963;SDS011;14521;48.148;-1.656;2023-03-19T03:42:25;0.98;;;0.50;;
26963;SDS011;14521;48.148;-1.656;2023-03-19T03:45:47;1.00;;;0.38;;
26963;SDS011;14521;48.148;-1.656;2023-03-19T03:49:11;0.70;;;0.40;;
26963;SDS011;14521;48.148;-1.656;2023-03-19T03:52:34;1.70;;;0.70;;
26963;SDS011;14521;48.148;-1.656;2023-03-19T03:55:56;0.57;;;0.45;;
26963;SDS011;14521;48.148;-1.656;2023-03-19T03:59:20;1.25;;;0.65;;
26963;SDS011;14521;48.148;-1.656;2023-03-19T04:02:43;0.82;;;0.45;;
26963;SDS011;14521;48.148;-1.656;2023-03-19T04:06:11;1.38;;;0.60;;
26963;SDS011;14521;48.148;-1.656;2023-03-19T04:09:42;2.47;;;0.57;;
26963;SDS011;14521;48.148;-1.656;2023-03-19T04:13:04;1.45;;;0.60;;
26963;SDS011;14521;48.148;-1.656;2023-03-19T04:16:26;0.68;;;0.43;;
26963;SDS011;14521;48.148;-1.656;2023-03-19T04:19:50;0.98;;;0.50;;
26963;SDS011;14521;48.148;-1.656;2023-03-19T04:23:12;2.28;;;0.60;;
26963;SDS011;14521;48.148;-1.656;2023-03-19T04:26:35;1.10;;;0.40;;
26963;SDS011;14521;48.148;-1.656;2023-03-19T04:29:58;0.85;;;0.50;;
26963;SDS011;14521;48.148;-1.656;2023-03-19T04:33:21;0.90;;;0.40;;
26963;SDS011;14521;48.148;-1.656;2023-03-19T04:36:44;0.93;;;0.30;;
26963;SDS011;14521;48.148;-1.656;2023-03-19T04:40:07;1.50;;;0.45;;
26963;SDS011;14521;48.148;-1.656;2023-03-19T04:43:31;3.25;;;0.50;;
26963;SDS011;14521;48.148;-1.656;2023-03-19T04:50:19;1.13;;;0.47;;
26963;SDS011;14521;48.148;-1.656;2023-03-19T04:53:41;3.38;;;0.57;;
26963;SDS011;14521;48.148;-1.656;2023-03-19T04:57:04;2.97;;;0.50;;
26963;SDS011;14521;48.148;-1.656;2023-03-19T05:00:30;4.13;;;0.60;;
26963;SDS011;14521;48.148;-1.656;2023-03-19T05:03:53;1.17;;;0.60;;
26963;SDS011;14521;48.148;-1.656;2023-03-19T05:07:16;0.63;;;0.35;;
26963;SDS011;14521;48.148;-1.656;2023-03-19T05:10:38;2.13;;;0.70;;
26963;SDS011;14521;48.148;-1.656;2023-03-19T05:14:02;0.85;;;0.70;;
26963;SDS011;14521;48.148;-1.656;2023-03-19T05:17:34;0.82;;;0.60;;
26963;SDS011;14521;48.148;-1.656;2023-03-19T05:21:13;3.25;;;0.60;;
26963;SDS011;14521;48.148;-1.656;2023-03-19T05:24:37;0.98;;;0.70;;
26963;SDS011;14521;48.148;-1.656;2023-03-19T05:28:02;0.50;;;0.50;;
26963;SDS011;14521;48.148;-1.656;2023-03-19T05:31:25;0.65;;;0.50;;
26963;SDS011;14521;48.148;-1.656;2023-03-19T05:34:48;1.48;;;1.00;;
26963;SDS011;14521;48.148;-1.656;2023-03-19T05:38:11;0.93;;;0.68;;
26963;SDS011;14521;48.148;-1.656;2023-03-19T05:41:36;1.17;;;0.57;;
26963;SDS011;14521;48.148;-1.656;2023-03-19T05:45:00;1.15;;;0.47;;
26963;SDS011;14521;48.148;-1.656;2023-03-19T05:48:32;1.17;;;0.98;;
26963;SDS011;14521;48.148;-1.656;2023-03-19T05:51:56;1.17;;;0.30;;
26963;SDS011;14521;48.148;-1.656;2023-03-19T05:55:19;3.65;;;0.45;;
26963;SDS011;14521;48.148;-1.656;2023-03-19T05:58:47;2.35;;;0.68;;
26963;SDS011;14521;48.148;-1.656;2023-03-19T06:02:14;1.33;;;0.50;;
26963;SDS011;14521;48.148;-1.656;2023-03-19T06:05:37;1.67;;;0.50;;
26963;SDS011;14521;48.148;-1.656;2023-03-19T06:09:09;0.80;;;0.45;;
26963;SDS011;14521;48.148;-1.656;2023-03-19T06:12:36;1.13;;;0.43;;
26963;SDS011;14521;48.148;-1.656;2023-03-19T06:16:20;1.83;;;0.40;;
26963;SDS011;14521;48.148;-1.656;2023-03-19T06:19:47;1.08;;;0.50;;
26963;SDS011;14521;48.148;-1.656;2023-03-19T06:23:09;1.52;;;0.30;;
26963;SDS011;14521;48.148;-1.656;2023-03-19T06:26:32;0.30;;;0.30;;
26963;SDS011;14521;48.148;-1.656;2023-03-19T06:29:58;0.28;;;0.28;;
26963;SDS011;14521;48.148;-1.656;2023-03-19T06:33:26;0.35;;;0.30;;
26963;SDS011;14521;48.148;-1.656;2023-03-19T06:36:52;0.20;;;0.20;;
26963;SDS011;14521;48.148;-1.656;2023-03-19T06:40:15;1.33;;;0.32;;
26963;SDS011;14521;48.148;-1.656;2023-03-19T06:43:37;0.93;;;0.65;;
26963;SDS011;14521;48.148;-1.656;2023-03-19T06:47:02;0.40;;;0.30;;
26963;SDS011;14521;48.148;-1.656;2023-03-19T06:50:26;0.43;;;0.25;;
26963;SDS011;14521;48.148;-1.656;2023-03-19T06:53:48;1.00;;;0.35;;
26963;SDS011;14521;48.148;-1.656;2023-03-19T06:57:10;0.63;;;0.30;;
26963;SDS011;14521;48.148;-1.656;2023-03-19T07:00:33;0.50;;;0.50;;
26963;SDS011;14521;48.148;-1.656;2023-03-19T07:03:56;0.65;;;0.22;;
26963;SDS011;14521;48.148;-1.656;2023-03-19T07:07:19;1.52;;;0.40;;
26963;SDS011;14521;48.148;-1.656;2023-03-19T07:10:41;0.70;;;0.32;;
26963;SDS011;14521;48.148;-1.656;2023-03-19T07:14:04;1.48;;;0.35;;
26963;SDS011;14521;48.148;-1.656;2023-03-19T07:17:26;0.95;;;0.30;;
26963;SDS011;14521;48.148;-1.656;2023-03-19T07:20:48;1.13;;;0.40;;
26963;SDS011;14521;48.148;-1.656;2023-03-19T07:24:10;0.52;;;0.30;;
26963;SDS011;14521;48.148;-1.656;2023-03-19T07:27:33;6.07;;;0.40;;
26963;SDS011;14521;48.148;-1.656;2023-03-19T07:30:55;0.43;;;0.30;;
26963;SDS011;14521;48.148;-1.656;2023-03-19T07:34:17;0.73;;;0.40;;
26963;SDS011;14521;48.148;-1.656;2023-03-19T07:37:40;3.10;;;0.30;;
26963;SDS011;14521;48.148;-1.656;2023-03-19T07:41:03;0.80;;;0.28;;
26963;SDS011;14521;48.148;-1.656;2023-03-19T07:44:25;1.40;;;0.40;;
26963;SDS011;14521;48.148;-1.656;2023-03-19T07:47:51;0.95;;;0.40;;
26963;SDS011;14521;48.148;-1.656;2023-03-19T07:51:13;1.63;;;0.40;;
26963;SDS011;14521;48.148;-1.656;2023-03-19T07:54:36;10.10;;;5.38;;
26963;SDS011;14521;48.148;-1.656;2023-03-19T07:57:58;8.52;;;2.63;;
26963;SDS011;14521;48.148;-1.656;2023-03-19T08:01:20;3.70;;;2.70;;
26963;SDS011;14521;48.148;-1.656;2023-03-19T08:04:43;5.00;;;2.60;;
26963;SDS011;14521;48.148;-1.656;2023-03-19T08:08:05;6.72;;;2.45;;
26963;SDS011;14521;48.148;-1.656;2023-03-19T08:11:27;4.18;;;2.47;;
26963;SDS011;14521;48.148;-1.656;2023-03-19T08:14:50;4.20;;;2.30;;
26963;SDS011;14521;48.148;-1.656;2023-03-19T08:18:12;2.80;;;2.20;;
26963;SDS011;14521;48.148;-1.656;2023-03-19T08:21:35;4.00;;;1.48;;
26963;SDS011;14521;48.148;-1.656;2023-03-19T08:24:57;4.70;;;1.70;;
26963;SDS011;14521;48.148;-1.656;2023-03-19T08:28:20;5.20;;;1.90;;
26963;SDS011;14521;48.148;-1.656;2023-03-19T08:31:42;9.43;;;2.85;;
26963;SDS011;14521;48.148;-1.656;2023-03-19T08:35:05;5.53;;;2.40;;
26963;SDS011;14521;48.148;-1.656;2023-03-19T08:38:28;4.20;;;2.03;;
26963;SDS011;14521;48.148;-1.656;2023-03-19T08:41:50;3.38;;;1.85;;
26963;SDS011;14521;48.148;-1.656;2023-03-19T08:45:13;9.55;;;1.85;;
26963;SDS011;14521;48.148;-1.656;2023-03-19T08:48:36;1.90;;;1.42;;
26963;SDS011;14521;48.148;-1.656;2023-03-19T08:52:02;3.95;;;1.35;;
26963;SDS011;14521;48.148;-1.656;2023-03-19T08:55:24;3.20;;;0.88;;
26963;SDS011;14521;48.148;-1.656;2023-03-19T08:58:46;3.03;;;1.13;;
26963;SDS011;14521;48.148;-1.656;2023-03-19T09:02:09;4.28;;;0.95;;
26963;SDS011;14521;48.148;-1.656;2023-03-19T09:05:32;6.28;;;1.52;;
26963;SDS011;14521;48.148;-1.656;2023-03-19T09:08:56;3.78;;;0.82;;
26963;SDS011;14521;48.148;-1.656;2023-03-19T09:12:19;4.85;;;1.10;;
26963;SDS011;14521;48.148;-1.656;2023-03-19T09:15:41;3.00;;;1.00;;
26963;SDS011;14521;48.148;-1.656;2023-03-19T09:19:04;2.72;;;0.95;;
26963;SDS011;14521;48.148;-1.656;2023-03-19T09:22:26;3.83;;;1.10;;
26963;SDS011;14521;48.148;-1.656;2023-03-19T09:25:48;4.30;;;0.90;;
26963;SDS011;14521;48.148;-1.656;2023-03-19T09:29:11;8.15;;;0.80;;
26963;SDS011;14521;48.148;-1.656;2023-03-19T09:32:34;1.08;;;0.63;;
26963;SDS011;14521;48.148;-1.656;2023-03-19T09:35:57;10.57;;;1.15;;
26963;SDS011;14521;48.148;-1.656;2023-03-19T09:39:19;9.40;;;0.80;;
26963;SDS011;14521;48.148;-1.656;2023-03-19T09:42:52;1.55;;;0.80;;
26963;SDS011;14521;48.148;-1.656;2023-03-19T09:46:18;2.08;;;0.80;;
26963;SDS011;14521;48.148;-1.656;2023-03-19T09:49:45;2.33;;;0.82;;
26963;SDS011;14521;48.148;-1.656;2023-03-19T09:53:30;3.38;;;1.00;;
26963;SDS011;14521;48.148;-1.656;2023-03-19T09:56:58;2.92;;;1.02;;
26963;SDS011;14521;48.148;-1.656;2023-03-19T10:00:23;1.55;;;0.80;;
26963;SDS011;14521;48.148;-1.656;2023-03-19T10:11:31;2.13;;;0.95;;
26963;SDS011;14521;48.148;-1.656;2023-03-19T10:18:35;7.50;;;1.05;;
26963;SDS011;14521;48.148;-1.656;2023-03-19T10:22:01;5.00;;;1.00;;
26963;SDS011;14521;48.148;-1.656;2023-03-19T10:25:28;2.45;;;0.90;;
26963;SDS011;14521;48.148;-1.656;2023-03-19T10:28:57;3.88;;;1.13;;
26963;SDS011;14521;48.148;-1.656;2023-03-19T10:32:27;3.22;;;0.88;;
26963;SDS011;14521;48.148;-1.656;2023-03-19T10:36:02;3.60;;;1.00;;
26963;SDS011;14521;48.148;-1.656;2023-03-19T10:39:29;2.85;;;0.95;;
26963;SDS011;14521;48.148;-1.656;2023-03-19T10:46:40;4.35;;;0.52;;
26963;SDS011;14521;48.148;-1.656;2023-03-19T10:50:03;2.50;;;0.90;;
26963;SDS011;14521;48.148;-1.656;2023-03-19T10:56:53;5.10;;;1.23;;
26963;SDS011;14521;48.148;-1.656;2023-03-19T11:00:18;5.97;;;1.50;;
26963;SDS011;14521;48.148;-1.656;2023-03-19T11:03:49;8.75;;;1.60;;
26963;SDS011;14521;48.148;-1.656;2023-03-19T11:07:19;71.75;;;19.17;;
26963;SDS011;14521;48.148;-1.656;2023-03-19T11:10:46;78.05;;;21.83;;
26963;SDS011;14521;48.148;-1.656;2023-03-19T11:14:14;49.45;;;14.18;;
26963;SDS011;14521;48.148;-1.656;2023-03-19T11:17:44;45.65;;;12.48;;
26963;SDS011;14521;48.148;-1.656;2023-03-19T11:21:21;33.55;;;10.32;;
26963;SDS011;14521;48.148;-1.656;2023-03-19T11:25:29;33.47;;;9.85;;
26963;SDS011;14521;48.148;-1.656;2023-03-19T11:28:41;34.35;;;8.68;;
26963;SDS011;14521;48.148;-1.656;2023-03-19T11:43:38;28.88;;;5.90;;
26963;SDS011;14521;48.148;-1.656;2023-03-19T11:47:45;16.30;;;5.15;;
26963;SDS011;14521;48.148;-1.656;2023-03-19T11:50:58;12.93;;;4.22;;
26963;SDS011;14521;48.148;-1.656;2023-03-19T12:05:23;11.32;;;4.65;;
26963;SDS011;14521;48.148;-1.656;2023-03-19T12:08:58;18.27;;;4.20;;
26963;SDS011;14521;48.148;-1.656;2023-03-19T12:12:37;9.10;;;3.17;;
26963;SDS011;14521;48.148;-1.656;2023-03-19T12:16:28;9.50;;;3.20;;
26963;SDS011;14521;48.148;-1.656;2023-03-19T12:20:19;10.50;;;4.18;;
26963;SDS011;14521;48.148;-1.656;2023-03-19T12:24:09;11.73;;;4.50;;
26963;SDS011;14521;48.148;-1.656;2023-03-19T12:27:54;15.48;;;6.05;;
26963;SDS011;14521;48.148;-1.656;2023-03-19T12:31:29;18.60;;;4.70;;
26963;SDS011;14521;48.148;-1.656;2023-03-19T12:34:54;9.70;;;4.18;;
26963;SDS011;14521;48.148;-1.656;2023-03-19T12:41:49;6.07;;;3.70;;
26963;SDS011;14521;48.148;-1.656;2023-03-19T12:49:08;10.73;;;3.22;;
26963;SDS011;14521;48.148;-1.656;2023-03-19T12:52:51;11.32;;;2.95;;
26963;SDS011;14521;48.148;-1.656;2023-03-19T12:56:22;10.57;;;2.70;;
26963;SDS011;14521;48.148;-1.656;2023-03-19T12:59:53;10.45;;;2.05;;
26963;SDS011;14521;48.148;-1.656;2023-03-19T13:04:25;6.25;;;2.83;;
26963;SDS011;14521;48.148;-1.656;2023-03-19T13:12:09;4.77;;;1.93;;
26963;SDS011;14521;48.148;-1.656;2023-03-19T13:15:42;3.78;;;1.42;;
26963;SDS011;14521;48.148;-1.656;2023-03-19T13:19:12;8.27;;;2.20;;
26963;SDS011;14521;48.148;-1.656;2023-03-19T13:22:50;9.15;;;2.22;;
26963;SDS011;14521;48.148;-1.656;2023-03-19T13:26:16;4.57;;;1.80;;
26963;SDS011;14521;48.148;-1.656;2023-03-19T13:29:50;5.43;;;1.65;;
26963;SDS011;14521;48.148;-1.656;2023-03-19T13:33:20;5.25;;;1.80;;
26963;SDS011;14521;48.148;-1.656;2023-03-19T13:44:41;2.40;;;1.23;;
26963;SDS011;14521;48.148;-1.656;2023-03-19T13:48:21;3.05;;;1.77;;
26963;SDS011;14521;48.148;-1.656;2023-03-19T13:52:45;10.50;;;1.60;;
26963;SDS011;14521;48.148;-1.656;2023-03-19T13:55:51;5.28;;;1.50;;
26963;SDS011;14521;48.148;-1.656;2023-03-19T14:06:00;4.00;;;1.70;;
26963;SDS011;14521;48.148;-1.656;2023-03-19T14:13:02;4.38;;;1.48;;
26963;SDS011;14521;48.148;-1.656;2023-03-19T14:16:31;4.40;;;1.80;;
26963;SDS011;14521;48.148;-1.656;2023-03-19T14:19:59;6.97;;;1.40;;
26963;SDS011;14521;48.148;-1.656;2023-03-19T14:24:18;3.40;;;1.05;;
26963;SDS011;14521;48.148;-1.656;2023-03-19T14:28:20;3.58;;;1.50;;
26963;SDS011;14521;48.148;-1.656;2023-03-19T14:31:53;8.50;;;1.65;;
26963;SDS011;14521;48.148;-1.656;2023-03-19T14:35:20;2.55;;;1.45;;
26963;SDS011;14521;48.148;-1.656;2023-03-19T14:38:50;2.47;;;1.40;;
26963;SDS011;14521;48.148;-1.656;2023-03-19T14:42:21;4.03;;;0.95;;
26963;SDS011;14521;48.148;-1.656;2023-03-19T14:45:56;3.35;;;1.40;;
26963;SDS011;14521;48.148;-1.656;2023-03-19T14:53:16;2.95;;;0.82;;
26963;SDS011;14521;48.148;-1.656;2023-03-19T14:56:46;2.40;;;1.02;;
26963;SDS011;14521;48.148;-1.656;2023-03-19T15:00:13;2.25;;;1.08;;
26963;SDS011;14521;48.148;-1.656;2023-03-19T15:03:38;1.17;;;0.95;;
26963;SDS011;14521;48.148;-1.656;2023-03-19T15:07:00;4.47;;;1.13;;
26963;SDS011;14521;48.148;-1.656;2023-03-19T15:10:23;1.83;;;1.10;;
26963;SDS011;14521;48.148;-1.656;2023-03-19T15:14:04;1.35;;;0.75;;
26963;SDS011;14521;48.148;-1.656;2023-03-19T15:17:39;1.27;;;1.10;;
26963;SDS011;14521;48.148;-1.656;2023-03-19T15:21:05;3.03;;;0.98;;
26963;SDS011;14521;48.148;-1.656;2023-03-19T15:24:28;2.42;;;0.98;;
26963;SDS011;14521;48.148;-1.656;2023-03-19T15:28:07;2.03;;;0.98;;
26963;SDS011;14521;48.148;-1.656;2023-03-19T15:31:41;2.78;;;0.80;;
26963;SDS011;14521;48.148;-1.656;2023-03-19T15:35:14;1.02;;;0.70;;
26963;SDS011;14521;48.148;-1.656;2023-03-19T15:38:38;3.85;;;0.85;;
26963;SDS011;14521;48.148;-1.656;2023-03-19T15:42:13;1.60;;;0.80;;
26963;SDS011;14521;48.148;-1.656;2023-03-19T15:45:37;3.90;;;1.25;;
26963;SDS011;14521;48.148;-1.656;2023-03-19T15:49:19;2.85;;;1.00;;
26963;SDS011;14521;48.148;-1.656;2023-03-19T15:52:49;2.20;;;0.80;;
26963;SDS011;14521;48.148;-1.656;2023-03-19T15:56:34;2.53;;;1.02;;
26963;SDS011;14521;48.148;-1.656;2023-03-19T15:59:56;1.27;;;0.90;;
26963;SDS011;14521;48.148;-1.656;2023-03-19T16:03:42;2.83;;;0.70;;
26963;SDS011;14521;48.148;-1.656;2023-03-19T16:07:21;4.47;;;0.70;;
26963;SDS011;14521;48.148;-1.656;2023-03-19T16:10:46;1.98;;;0.95;;
26963;SDS011;14521;48.148;-1.656;2023-03-19T16:14:10;1.98;;;0.60;;
26963;SDS011;14521;48.148;-1.656;2023-03-19T16:17:33;2.33;;;0.70;;
26963;SDS011;14521;48.148;-1.656;2023-03-19T16:21:03;1.63;;;0.90;;
26963;SDS011;14521;48.148;-1.656;2023-03-19T16:24:38;0.70;;;0.50;;
26963;SDS011;14521;48.148;-1.656;2023-03-19T16:28:04;0.68;;;0.60;;
26963;SDS011;14521;48.148;-1.656;2023-03-19T16:31:40;1.00;;;0.68;;
26963;SDS011;14521;48.148;-1.656;2023-03-19T16:35:08;3.25;;;1.00;;
26963;SDS011;14521;48.148;-1.656;2023-03-19T16:38:35;1.15;;;0.70;;
26963;SDS011;14521;48.148;-1.656;2023-03-19T16:45:30;1.58;;;0.55;;
26963;SDS011;14521;48.148;-1.656;2023-03-19T16:48:53;1.77;;;0.60;;
26963;SDS011;14521;48.148;-1.656;2023-03-19T16:52:17;0.95;;;0.43;;
26963;SDS011;14521;48.148;-1.656;2023-03-19T16:55:42;1.23;;;0.70;;
26963;SDS011;14521;48.148;-1.656;2023-03-19T16:59:05;1.33;;;0.60;;
26963;SDS011;14521;48.148;-1.656;2023-03-19T17:02:27;1.55;;;0.70;;
26963;SDS011;14521;48.148;-1.656;2023-03-19T17:05:50;2.55;;;0.60;;
26963;SDS011;14521;48.148;-1.656;2023-03-19T17:09:12;2.42;;;0.90;;
26963;SDS011;14521;48.148;-1.656;2023-03-19T17:12:34;3.15;;;0.93;;
26963;SDS011;14521;48.148;-1.656;2023-03-19T17:15:58;1.23;;;0.70;;
26963;SDS011;14521;48.148;-1.656;2023-03-19T17:19:24;0.80;;;0.63;;
26963;SDS011;14521;48.148;-1.656;2023-03-19T17:22:48;0.90;;;0.70;;
26963;SDS011;14521;48.148;-1.656;2023-03-19T17:26:12;1.17;;;0.63;;
26963;SDS011;14521;48.148;-1.656;2023-03-19T17:29:39;1.33;;;0.55;;
26963;SDS011;14521;48.148;-1.656;2023-03-19T17:33:02;2.97;;;0.50;;
26963;SDS011;14521;48.148;-1.656;2023-03-19T17:36:24;2.53;;;0.65;;
26963;SDS011;14521;48.148;-1.656;2023-03-19T17:39:46;7.82;;;0.70;;
26963;SDS011;14521;48.148;-1.656;2023-03-19T17:43:10;1.63;;;0.82;;
26963;SDS011;14521;48.148;-1.656;2023-03-19T17:46:36;3.50;;;0.63;;
26963;SDS011;14521;48.148;-1.656;2023-03-19T17:50:00;2.28;;;0.75;;
26963;SDS011;14521;48.148;-1.656;2023-03-19T17:53:22;0.93;;;0.50;;
26963;SDS011;14521;48.148;-1.656;2023-03-19T17:56:44;6.10;;;0.77;;
26963;SDS011;14521;48.148;-1.656;2023-03-19T18:00:07;2.78;;;0.73;;
26963;SDS011;14521;48.148;-1.656;2023-03-19T18:03:30;2.75;;;1.08;;
26963;SDS011;14521;48.148;-1.656;2023-03-19T18:06:56;1.83;;;0.55;;
26963;SDS011;14521;48.148;-1.656;2023-03-19T18:10:20;2.88;;;0.70;;
26963;SDS011;14521;48.148;-1.656;2023-03-19T18:13:44;1.13;;;0.60;;
26963;SDS011;14521;48.148;-1.656;2023-03-19T18:17:08;2.13;;;0.80;;
26963;SDS011;14521;48.148;-1.656;2023-03-19T18:20:37;1.33;;;0.52;;
26963;SDS011;14521;48.148;-1.656;2023-03-19T18:24:00;1.27;;;0.80;;
26963;SDS011;14521;48.148;-1.656;2023-03-19T18:27:22;3.70;;;1.15;;
26963;SDS011;14521;48.148;-1.656;2023-03-19T18:30:45;2.72;;;0.77;;
26963;SDS011;14521;48.148;-1.656;2023-03-19T18:34:09;2.70;;;0.60;;
26963;SDS011;14521;48.148;-1.656;2023-03-19T18:37:33;1.40;;;0.57;;
26963;SDS011;14521;48.148;-1.656;2023-03-19T18:40:56;3.17;;;0.40;;
26963;SDS011;14521;48.148;-1.656;2023-03-19T18:44:18;2.30;;;0.70;;
26963;SDS011;14521;48.148;-1.656;2023-03-19T18:47:41;2.47;;;1.02;;
26963;SDS011;14521;48.148;-1.656;2023-03-19T18:51:07;6.10;;;0.75;;
26963;SDS011;14521;48.148;-1.656;2023-03-19T18:54:31;1.52;;;1.13;;
26963;SDS011;14521;48.148;-1.656;2023-03-19T18:57:58;2.00;;;1.60;;
26963;SDS011;14521;48.148;-1.656;2023-03-19T19:01:22;7.43;;;2.00;;
26963;SDS011;14521;48.148;-1.656;2023-03-19T19:04:46;6.20;;;2.78;;
26963;SDS011;14521;48.148;-1.656;2023-03-19T19:08:11;4.63;;;2.30;;
26963;SDS011;14521;48.148;-1.656;2023-03-19T19:11:36;4.53;;;2.13;;
26963;SDS011;14521;48.148;-1.656;2023-03-19T19:15:00;8.85;;;1.92;;
26963;SDS011;14521;48.148;-1.656;2023-03-19T19:18:25;6.32;;;2.25;;
26963;SDS011;14521;48.148;-1.656;2023-03-19T19:21:52;5.85;;;2.22;;
26963;SDS011;14521;48.148;-1.656;2023-03-19T19:25:16;4.53;;;1.92;;
26963;SDS011;14521;48.148;-1.656;2023-03-19T19:28:40;8.63;;;2.22;;
26963;SDS011;14521;48.148;-1.656;2023-03-19T19:32:03;2.72;;;1.58;;
26963;SDS011;14521;48.148;-1.656;2023-03-19T19:39:00;5.53;;;1.52;;
26963;SDS011;14521;48.148;-1.656;2023-03-19T19:42:23;4.38;;;1.48;;
26963;SDS011;14521;48.148;-1.656;2023-03-19T19:45:46;4.80;;;1.65;;
26963;SDS011;14521;48.148;-1.656;2023-03-19T19:52:33;4.28;;;1.52;;
26963;SDS011;14521;48.148;-1.656;2023-03-19T19:55:56;4.93;;;1.30;;
26963;SDS011;14521;48.148;-1.656;2023-03-19T19:59:18;8.50;;;1.30;;
26963;SDS011;14521;48.148;-1.656;2023-03-19T20:02:44;4.90;;;1.48;;
26963;SDS011;14521;48.148;-1.656;2023-03-19T20:06:06;6.15;;;1.45;;
26963;SDS011;14521;48.148;-1.656;2023-03-19T20:09:28;4.95;;;0.82;;
26963;SDS011;14521;48.148;-1.656;2023-03-19T20:12:52;3.63;;;1.30;;
26963;SDS011;14521;48.148;-1.656;2023-03-19T20:16:17;2.70;;;1.20;;
26963;SDS011;14521;48.148;-1.656;2023-03-19T20:19:41;4.03;;;1.67;;
26963;SDS011;14521;48.148;-1.656;2023-03-19T20:23:04;6.43;;;2.10;;
26963;SDS011;14521;48.148;-1.656;2023-03-19T20:26:27;3.70;;;1.30;;
26963;SDS011;14521;48.148;-1.656;2023-03-19T20:29:50;5.63;;;1.65;;
26963;SDS011;14521;48.148;-1.656;2023-03-19T20:33:14;6.47;;;1.90;;
26963;SDS011;14521;48.148;-1.656;2023-03-19T20:36:38;3.63;;;1.30;;
26963;SDS011;14521;48.148;-1.656;2023-03-19T20:40:01;4.60;;;1.33;;
26963;SDS011;14521;48.148;-1.656;2023-03-19T20:43:30;5.18;;;1.45;;
26963;SDS011;14521;48.148;-1.656;2023-03-19T20:46:54;4.50;;;1.55;;
26963;SDS011;14521;48.148;-1.656;2023-03-19T20:53:48;3.05;;;1.30;;
26963;SDS011;14521;48.148;-1.656;2023-03-19T20:57:16;3.33;;;1.27;;
26963;SDS011;14521;48.148;-1.656;2023-03-19T21:00:42;5.85;;;1.55;;
26963;SDS011;14521;48.148;-1.656;2023-03-19T21:04:04;4.57;;;1.40;;
26963;SDS011;14521;48.148;-1.656;2023-03-19T21:07:27;5.13;;;1.90;;
26963;SDS011;14521;48.148;-1.656;2023-03-19T21:10:55;3.38;;;2.03;;
26963;SDS011;14521;48.148;-1.656;2023-03-19T21:14:17;5.15;;;1.77;;
26963;SDS011;14521;48.148;-1.656;2023-03-19T21:17:39;5.47;;;2.38;;
26963;SDS011;14521;48.148;-1.656;2023-03-19T21:21:01;5.10;;;2.20;;
26963;SDS011;14521;48.148;-1.656;2023-03-19T21:24:24;10.43;;;1.80;;
26963;SDS011;14521;48.148;-1.656;2023-03-19T21:27:48;5.20;;;1.77;;
26963;SDS011;14521;48.148;-1.656;2023-03-19T21:31:13;3.75;;;1.75;;
26963;SDS011;14521;48.148;-1.656;2023-03-19T21:34:39;8.43;;;2.20;;
26963;SDS011;14521;48.148;-1.656;2023-03-19T21:38:01;5.20;;;2.15;;
26963;SDS011;14521;48.148;-1.656;2023-03-19T21:41:28;7.50;;;2.20;;
26963;SDS011;14521;48.148;-1.656;2023-03-19T21:44:55;4.95;;;2.10;;
26963;SDS011;14521;48.148;-1.656;2023-03-19T21:48:30;2.65;;;1.50;;
26963;SDS011;14521;48.148;-1.656;2023-03-19T21:51:54;9.95;;;1.83;;
26963;SDS011;14521;48.148;-1.656;2023-03-19T21:55:18;5.22;;;1.58;;
26963;SDS011;14521;48.148;-1.656;2023-03-19T21:58:40;3.72;;;1.30;;